Airfield :
LOGIN :

Register | Disclaimer

   EN    FR    IT 

 










Legend :    VFR   Marginal VFR   IFR   Intensive IFR   Very Intensive IFR
Visi :
Ceiling :
>= 8 km
>= 3000ft
5 to 8 km
1000 to 3000 ft
1500m to 5 km
500 to 1000 ft
800 to 1500m
200 to 500 ft
< 800m
< 200 ft
Symbols :   Thunderstorms  Fog  Heavy snow  Heavy precipitations  Wind > 20 kt
SIGMETs :     Misc.  Thunderstorms  Icing  Turbulence  Mountain Waves  Volcanic Ashes






- Airport Elevation : 20 ft


EBFN - Koksijde

CURRENT METAR :
  • 231825Z AUTO 24008KT 9999 NCD 18/10 Q1015 BLU

EXPIRED METARs :
  • 231755Z AUTO 24007KT 9999 NCD 18/10 Q1015 BLU
  • 231725Z 23008KT 9999 FEW035 18/11 Q1014 BLU BLU
  • 231655Z 24009KT 9999 FEW035 19/11 Q1014 BLU BLU
  • 231625Z 25011KT 9999 FEW035 19/11 Q1014 BLU BLU
  • 231555Z 25010KT 9999 FEW035 19/12 Q1014 BLU BLU
  • 231525Z 24011KT 9999 FEW030 19/12 Q1014 BLU BLU
  • 231455Z 23011KT 9999 FEW030 19/11 Q1014 BLU BLU
  • 231425Z 24012KT 9999 FEW030 19/12 Q1014 BLU BLU
  • 231355Z 24012KT 9999 SCT030 19/12 Q1014 BLU BLU

TAF TAF EBFN
Valid from the 23 at 19:00 until the 24 at 07:00 UTC


231541Z 2319/2407 22007KT 9999 FEW030
TEMPO 2319/2322 4000 SHRA SCT015TCU
PROB30
TEMPO 2319/2322 2000 TSRA BKN010CB
TEMPO 2402/2407 VRB03KT 4000 BR



MET'MAP, your aeronautical weather chart ! - Copyright ORBIFLY December 2007 - Disclaimer

ORBIFLY MET'MAP TEAM :

Programming & Development : Alexandra Zaïnal
Original concept : Baudouin d'Aumeries
Technical & hardware support : Manuel Goepfert
Assistance : Marc-Olivier Méhu




SOURCES & CREDITS :

   NOAA